Time;durP1;ratioP1;P1;durP2;ratioP2;P2;SDS_P1;SDS_P2;PMS_P1;PMS_P2;Temp;Humidity;BMP_temperature;BMP_pressure;BME280_temperature;BME280_humidity;BME280_pressure;Samples;Min_cycle;Max_cycle;Signal;HPM_P1;HPM_P2
2022/09/24 00:02:03;;;;;;;1.08;0.98;;;20.50;55.10;;;;;;6143232;29;20042;-78
2022/09/24 00:05:04;;;;;;;1.33;0.93;;;20.50;55.10;;;;;;6143056;29;20046;-78
2022/09/24 00:08:08;;;;;;;2.50;0.90;;;20.50;55.20;;;;;;6142898;29;20031;-79
2022/09/24 00:11:11;;;;;;;1.38;0.90;;;20.50;55.20;;;;;;6168430;28;20041;-77
2022/09/24 00:14:12;;;;;;;1.20;0.93;;;20.50;55.20;;;;;;6218912;28;20021;-79
2022/09/24 00:17:12;;;;;;;1.77;0.98;;;20.50;55.20;;;;;;6219092;28;20022;-78
2022/09/24 00:20:13;;;;;;;1.50;0.90;;;20.50;55.20;;;;;;6218667;28;20485;-76
2022/09/24 00:23:14;;;;;;;1.17;0.90;;;20.50;55.20;;;;;;6218522;28;20124;-79
2022/09/24 00:29:34;;;;;;;1.33;0.90;;;20.50;55.30;;;;;;6217830;28;20254;-77
2022/09/24 00:32:35;;;;;;;1.10;0.90;;;20.50;55.30;;;;;;6218200;28;20076;-78
2022/09/24 00:35:37;;;;;;;1.00;0.90;;;20.50;55.20;;;;;;6218039;28;20488;-78
2022/09/24 00:38:37;;;;;;;1.05;0.85;;;20.50;55.20;;;;;;6217897;28;20037;-78
2022/09/24 00:41:45;;;;;;;1.08;0.90;;;20.50;55.20;;;;;;6218282;28;20046;-78
2022/09/24 00:44:53;;;;;;;1.60;1.17;;;20.50;55.20;;;;;;6223870;28;20462;-79
2022/09/24 00:47:54;;;;;;;1.23;0.80;;;20.50;55.20;;;;;;6227422;28;20029;-77
2022/09/24 00:50:55;;;;;;;1.17;0.88;;;20.50;55.20;;;;;;6218056;28;20057;-78
2022/09/24 00:54:02;;;;;;;1.15;0.95;;;20.50;55.30;;;;;;6217617;28;20399;-78
2022/09/24 00:57:03;;;;;;;1.17;0.93;;;20.50;55.30;;;;;;6217421;28;20057;-78
2022/09/24 01:00:06;;;;;;;0.95;0.80;;;20.50;55.30;;;;;;6217266;28;20030;-78
2022/09/24 01:03:17;;;;;;;1.08;0.90;;;20.50;55.30;;;;;;6215884;28;20026;-78
2022/09/24 01:06:18;;;;;;;1.10;0.90;;;20.50;55.30;;;;;;6217590;28;20021;-77
2022/09/24 01:09:20;;;;;;;1.10;0.82;;;20.50;55.30;;;;;;6217549;28;20543;-79
2022/09/24 01:12:33;;;;;;;1.25;0.88;;;20.50;55.30;;;;;;6217662;28;20381;-79
2022/09/24 01:15:44;;;;;;;1.20;0.80;;;20.50;55.30;;;;;;6217294;28;20033;-78
2022/09/24 01:19:04;;;;;;;1.33;1.00;;;20.50;55.30;;;;;;6207108;28;20026;-76
2022/09/24 01:22:38;;;;;;;1.23;0.73;;;20.50;55.40;;;;;;6217782;28;20481;-76
2022/09/24 01:26:03;;;;;;;1.23;0.70;;;20.50;55.40;;;;;;6195344;28;20112;-78
2022/09/24 01:29:42;;;;;;;1.00;0.90;;;20.50;55.30;;;;;;6217474;28;20022;-79
2022/09/24 01:32:49;;;;;;;1.27;0.95;;;20.50;55.30;;;;;;6217645;28;20034;-79
2022/09/24 01:35:54;;;;;;;1.23;0.90;;;20.50;55.40;;;;;;6217687;28;20041;-79
2022/09/24 01:38:57;;;;;;;1.27;0.90;;;20.50;55.40;;;;;;6216839;28;20022;-77
2022/09/24 01:41:58;;;;;;;1.40;1.00;;;20.50;55.50;;;;;;6219097;28;20049;-77
2022/09/24 01:45:00;;;;;;;1.00;0.70;;;20.50;55.40;;;;;;6229853;28;20037;-78
2022/09/24 01:48:03;;;;;;;0.80;0.80;;;20.50;55.50;;;;;;6240461;28;20024;-79
2022/09/24 01:51:15;;;;;;;0.93;0.80;;;20.50;55.40;;;;;;6222003;28;20033;-77
2022/09/24 01:54:28;;;;;;;0.88;0.77;;;20.50;55.40;;;;;;6221376;28;20109;-79
2022/09/24 01:57:37;;;;;;;1.13;0.95;;;20.50;55.40;;;;;;6222516;28;20050;-78
2022/09/24 02:00:45;;;;;;;0.75;0.65;;;20.50;55.40;;;;;;6221798;28;20030;-78
2022/09/24 02:03:52;;;;;;;1.50;0.90;;;20.50;55.30;;;;;;6220676;28;20072;-78
2022/09/24 02:07:03;;;;;;;1.17;0.93;;;20.50;55.60;;;;;;6220205;28;20033;-78
2022/09/24 02:10:05;;;;;;;1.10;0.95;;;20.50;55.40;;;;;;6221539;28;20044;-78
2022/09/24 02:13:12;;;;;;;1.45;0.90;;;20.50;55.40;;;;;;6215206;28;20096;-78
2022/09/24 02:16:17;;;;;;;1.42;0.90;;;20.50;55.40;;;;;;6220968;28;20053;-77
2022/09/24 02:19:23;;;;;;;1.20;0.90;;;20.50;55.40;;;;;;6221518;28;20109;-78
2022/09/24 02:22:25;;;;;;;0.90;0.80;;;20.50;55.40;;;;;;6221694;28;20060;-79
2022/09/24 02:25:36;;;;;;;0.90;0.80;;;20.50;55.40;;;;;;6220855;28;20385;-78
2022/09/24 02:28:36;;;;;;;0.90;0.68;;;20.50;55.60;;;;;;6219053;28;20780;-78
2022/09/24 02:31:48;;;;;;;1.40;0.70;;;20.50;55.70;;;;;;6220830;28;20030;-78
2022/09/24 02:34:54;;;;;;;1.23;0.70;;;20.50;55.50;;;;;;6218690;28;20125;-78
2022/09/24 02:37:54;;;;;;;0.90;0.70;;;20.50;55.50;;;;;;6221527;28;20030;-77
2022/09/24 02:40:55;;;;;;;3.15;1.00;;;20.50;55.50;;;;;;6218976;28;20044;-78
2022/09/24 02:43:57;;;;;;;1.58;0.90;;;20.50;55.50;;;;;;6150377;28;20182;-77
2022/09/24 02:46:58;;;;;;;1.13;0.80;;;20.50;55.50;;;;;;6118552;29;20036;-79
2022/09/24 02:49:59;;;;;;;1.17;0.80;;;20.50;55.50;;;;;;6133943;29;20042;-78
2022/09/24 02:53:00;;;;;;;1.70;0.90;;;20.50;55.60;;;;;;6144637;28;20031;-78
2022/09/24 02:56:02;;;;;;;0.57;0.55;;;20.50;55.50;;;;;;6165759;28;20030;-78
2022/09/24 02:59:03;;;;;;;0.70;0.70;;;20.50;55.50;;;;;;6164211;28;20035;-79
2022/09/24 03:02:04;;;;;;;1.23;1.00;;;20.50;55.50;;;;;;6144501;29;20102;-79
2022/09/24 03:05:05;;;;;;;0.80;0.70;;;20.50;55.70;;;;;;6132363;29;20047;-78
2022/09/24 03:08:06;;;;;;;0.82;0.77;;;20.50;55.60;;;;;;6163499;28;20066;-77
2022/09/24 03:11:09;;;;;;;1.17;0.90;;;20.50;55.60;;;;;;6148376;28;20031;-77
2022/09/24 03:14:09;;;;;;;0.98;0.77;;;20.50;55.60;;;;;;6169530;28;20080;-77
2022/09/24 03:17:10;;;;;;;2.85;0.80;;;20.50;55.70;;;;;;6219938;28;20034;-79
2022/09/24 03:20:11;;;;;;;1.00;0.73;;;20.50;55.60;;;;;;6218043;28;20405;-78
2022/09/24 03:23:11;;;;;;;1.23;0.90;;;20.50;55.50;;;;;;6220086;28;20034;-78
2022/09/24 03:26:13;;;;;;;0.98;0.80;;;20.50;55.60;;;;;;6219444;28;20040;-78
2022/09/24 03:29:13;;;;;;;0.98;0.60;;;20.40;55.50;;;;;;6219841;28;20026;-78
2022/09/24 03:32:14;;;;;;;1.30;1.10;;;20.50;55.60;;;;;;6219982;28;20072;-79
2022/09/24 03:35:14;;;;;;;1.45;0.90;;;20.50;55.70;;;;;;6217523;28;20033;-77
2022/09/24 03:38:15;;;;;;;0.90;0.70;;;20.50;55.70;;;;;;6220211;28;20052;-78
2022/09/24 03:41:16;;;;;;;2.00;0.98;;;20.50;55.60;;;;;;6219630;28;20026;-79
2022/09/24 03:44:17;;;;;;;0.95;0.73;;;20.50;55.60;;;;;;6218875;28;20104;-79
2022/09/24 03:47:17;;;;;;;1.00;0.90;;;20.50;55.70;;;;;;6219432;28;20417;-78
2022/09/24 03:50:18;;;;;;;0.80;0.70;;;20.40;55.60;;;;;;6141586;29;20062;-74
2022/09/24 03:53:19;;;;;;;0.70;0.63;;;20.50;55.60;;;;;;6143624;29;20066;-77
2022/09/24 03:56:19;;;;;;;1.38;0.90;;;20.50;55.60;;;;;;6143149;29;20479;-78
2022/09/24 03:59:20;;;;;;;0.68;0.68;;;20.50;55.60;;;;;;6143701;29;20046;-76
2022/09/24 04:02:21;;;;;;;1.60;0.90;;;20.40;55.60;;;;;;6143367;29;20499;-78
2022/09/24 04:05:21;;;;;;;1.10;0.80;;;20.50;55.70;;;;;;6142156;28;20130;-78
2022/09/24 04:08:22;;;;;;;1.05;0.73;;;20.40;55.60;;;;;;6143365;29;20042;-78
2022/09/24 04:11:24;;;;;;;1.70;0.98;;;20.40;55.80;;;;;;6142967;29;20039;-78
2022/09/24 04:14:24;;;;;;;0.90;0.82;;;20.40;55.70;;;;;;6143496;29;20032;-79
2022/09/24 04:17:27;;;;;;;1.23;1.02;;;20.50;55.70;;;;;;6142715;29;20091;-78
2022/09/24 04:20:29;;;;;;;1.00;0.82;;;20.50;55.90;;;;;;6164169;28;20102;-78
2022/09/24 04:23:30;;;;;;;1.05;0.80;;;20.40;55.60;;;;;;6218556;28;20034;-78
2022/09/24 04:26:31;;;;;;;1.50;1.02;;;20.50;55.70;;;;;;6218378;28;20030;-77
2022/09/24 04:29:31;;;;;;;0.90;0.77;;;20.40;55.70;;;;;;6218707;28;20022;-79
2022/09/24 04:32:32;;;;;;;0.90;0.80;;;20.50;55.80;;;;;;6213561;28;20022;-78
2022/09/24 04:35:37;;;;;;;1.25;0.85;;;20.50;55.80;;;;;;6217582;28;20076;-78
2022/09/24 04:38:38;;;;;;;1.00;0.70;;;20.50;55.80;;;;;;6218043;28;20061;-78
2022/09/24 04:41:39;;;;;;;0.90;0.70;;;20.50;55.80;;;;;;6217848;28;20063;-78
2022/09/24 04:44:39;;;;;;;1.38;1.10;;;20.40;55.80;;;;;;6216800;28;20034;-79
2022/09/24 04:47:40;;;;;;;1.35;0.93;;;20.40;55.70;;;;;;6216640;28;20074;-78
2022/09/24 04:50:41;;;;;;;1.05;0.85;;;20.40;55.70;;;;;;6212209;28;20041;-79
2022/09/24 04:53:41;;;;;;;0.85;0.70;;;20.50;55.90;;;;;;6217404;28;20026;-78
2022/09/24 04:56:42;;;;;;;1.10;0.90;;;20.50;55.70;;;;;;6217836;28;20484;-76
2022/09/24 05:03:40;;;;;;;0.85;0.65;;;20.40;55.70;;;;;;6192660;28;20042;-78
2022/09/24 05:06:40;;;;;;;1.23;1.00;;;20.50;55.80;;;;;;6202752;28;20535;-76
2022/09/24 05:09:41;;;;;;;0.90;0.73;;;20.40;55.70;;;;;;6213300;28;20076;-79
2022/09/24 05:12:41;;;;;;;1.30;0.88;;;20.50;55.90;;;;;;6212631;28;20109;-79
2022/09/24 05:15:42;;;;;;;0.80;0.70;;;20.50;55.80;;;;;;6218625;28;20029;-78
2022/09/24 05:18:43;;;;;;;1.08;0.90;;;20.50;55.70;;;;;;6223202;28;20053;-78
2022/09/24 05:21:45;;;;;;;1.85;0.93;;;20.40;55.70;;;;;;6222333;28;20036;-77
2022/09/24 05:24:45;;;;;;;1.08;0.85;;;20.50;55.80;;;;;;6222042;28;20033;-76
2022/09/24 05:27:48;;;;;;;0.80;0.75;;;20.50;55.80;;;;;;6220615;28;20037;-78
2022/09/24 05:30:48;;;;;;;1.27;0.93;;;20.40;55.60;;;;;;6221803;28;20418;-77
2022/09/24 05:33:50;;;;;;;1.00;0.90;;;20.50;55.80;;;;;;6220595;28;20048;-78
2022/09/24 05:36:50;;;;;;;2.33;1.20;;;20.50;55.80;;;;;;6221927;28;20129;-78
2022/09/24 05:39:51;;;;;;;1.00;0.80;;;20.40;55.80;;;;;;6222385;28;20022;-79
2022/09/24 05:42:59;;;;;;;2.10;1.05;;;20.40;55.70;;;;;;6221662;28;20706;-76
2022/09/24 05:45:59;;;;;;;1.17;0.90;;;20.40;55.70;;;;;;6221725;28;20026;-78
2022/09/24 05:49:00;;;;;;;1.77;1.00;;;20.50;55.80;;;;;;6221568;28;20080;-77
2022/09/24 05:52:01;;;;;;;1.40;0.77;;;20.50;55.80;;;;;;6221955;28;20026;-79
2022/09/24 05:55:01;;;;;;;1.45;1.10;;;20.50;55.90;;;;;;6222123;28;20122;-78
2022/09/24 05:58:06;;;;;;;1.05;0.90;;;20.50;55.90;;;;;;6221413;28;20030;-78
2022/09/24 06:01:07;;;;;;;;;;;20.40;55.70;;;;;;6222047;28;20033;-78
2022/09/24 06:04:10;;;;;;;1.00;0.88;;;20.40;55.80;;;;;;6221780;28;20012;-78
2022/09/24 06:07:11;;;;;;;1.52;1.00;;;20.50;55.90;;;;;;6221268;28;20528;-78
2022/09/24 06:10:11;;;;;;;1.20;0.90;;;20.40;55.80;;;;;;6215504;28;20038;-78
2022/09/24 06:13:13;;;;;;;1.10;0.77;;;20.40;55.90;;;;;;6221565;28;20030;-78
2022/09/24 06:16:13;;;;;;;0.93;0.70;;;20.40;55.80;;;;;;6221280;28;20109;-77
2022/09/24 06:19:14;;;;;;;1.65;0.90;;;20.40;55.80;;;;;;6221519;28;20080;-78
2022/09/24 06:22:15;;;;;;;0.70;0.70;;;20.50;55.80;;;;;;6221199;28;20021;-79
2022/09/24 06:25:15;;;;;;;0.80;0.80;;;20.40;55.80;;;;;;6221395;28;20505;-78
2022/09/24 06:28:16;;;;;;;1.88;0.75;;;20.50;55.90;;;;;;6220265;28;20131;-77
2022/09/24 06:31:16;;;;;;;0.90;0.70;;;20.40;55.90;;;;;;6219046;28;20038;-79
2022/09/24 06:34:17;;;;;;;1.23;0.70;;;20.40;55.80;;;;;;6213703;28;20057;-78
2022/09/24 06:37:18;;;;;;;0.88;0.70;;;20.40;55.80;;;;;;6218562;28;20096;-78
2022/09/24 06:40:18;;;;;;;0.70;0.65;;;20.50;56.00;;;;;;6220930;28;20118;-77
2022/09/24 06:43:19;;;;;;;1.33;0.80;;;20.50;55.80;;;;;;6220458;28;20497;-78
2022/09/24 06:46:21;;;;;;;0.80;0.75;;;20.40;56.10;;;;;;6220450;28;20113;-79
2022/09/24 06:49:22;;;;;;;1.00;0.85;;;20.50;56.10;;;;;;6220292;28;20040;-79
2022/09/24 06:52:23;;;;;;;1.15;0.80;;;20.40;55.90;;;;;;6220732;28;20033;-79
2022/09/24 06:55:24;;;;;;;1.50;0.95;;;20.50;55.90;;;;;;6220380;28;20030;-78
2022/09/24 06:58:26;;;;;;;1.17;0.88;;;20.50;55.80;;;;;;6215319;28;20026;-79
2022/09/24 07:01:26;;;;;;;0.85;0.68;;;20.50;56.00;;;;;;6218149;28;20091;-77
2022/09/24 07:04:27;;;;;;;1.10;0.90;;;20.50;55.80;;;;;;6220062;28;20400;-79
2022/09/24 07:07:28;;;;;;;0.68;0.68;;;20.40;55.90;;;;;;6220581;28;20385;-78
2022/09/24 07:10:28;;;;;;;0.75;0.70;;;20.50;55.80;;;;;;6218231;28;20029;-80
2022/09/24 07:13:29;;;;;;;1.00;0.80;;;20.40;55.80;;;;;;6219012;28;20037;-78
2022/09/24 07:16:30;;;;;;;1.45;0.90;;;20.40;55.80;;;;;;6218402;28;20083;-79
2022/09/24 07:19:30;;;;;;;0.68;0.68;;;20.40;56.00;;;;;;6220077;28;20053;-79
2022/09/24 07:22:31;;;;;;;0.73;0.60;;;20.50;55.90;;;;;;6219793;28;20111;-77
2022/09/24 07:25:32;;;;;;;1.20;0.75;;;20.40;55.90;;;;;;6220043;28;20034;-77
2022/09/24 07:28:33;;;;;;;1.45;0.95;;;20.50;56.00;;;;;;6219523;28;20084;-78
2022/09/24 07:31:35;;;;;;;1.02;0.80;;;20.40;55.90;;;;;;6219896;28;20087;-79
2022/09/24 07:34:35;;;;;;;1.38;0.80;;;20.50;55.80;;;;;;6215210;28;20113;-79
2022/09/24 07:37:36;;;;;;;1.05;0.82;;;20.50;55.90;;;;;;6219530;28;20417;-79
2022/09/24 07:40:37;;;;;;;0.90;0.70;;;20.40;55.90;;;;;;6217995;28;20034;-78
2022/09/24 07:43:37;;;;;;;1.40;0.77;;;20.40;55.80;;;;;;6218926;28;20147;-78
2022/09/24 07:46:38;;;;;;;1.15;0.85;;;20.40;56.00;;;;;;6240056;28;20194;-79
2022/09/24 07:49:41;;;;;;;0.98;0.80;;;20.40;56.00;;;;;;6156135;28;20051;-78
2022/09/24 07:52:41;;;;;;;1.10;0.80;;;20.40;55.90;;;;;;6141246;29;20032;-78
2022/09/24 07:55:42;;;;;;;1.52;0.80;;;20.40;56.00;;;;;;6139249;29;20507;-78
2022/09/24 07:58:43;;;;;;;1.73;1.00;;;20.50;56.20;;;;;;6143267;29;20095;-78
2022/09/24 08:01:43;;;;;;;0.88;0.85;;;20.40;56.10;;;;;;6127814;29;20474;-78
2022/09/24 08:04:45;;;;;;;1.38;1.00;;;20.40;56.10;;;;;;6143317;29;20502;-79
2022/09/24 08:07:55;;;;;;;0.70;0.65;;;20.40;56.00;;;;;;6143927;29;20395;-79
2022/09/24 08:10:56;;;;;;;1.23;0.88;;;20.40;56.00;;;;;;6142916;29;20152;-78
2022/09/24 08:13:57;;;;;;;1.08;0.90;;;20.50;56.00;;;;;;6143535;29;20446;-78
2022/09/24 08:16:57;;;;;;;0.50;0.50;;;20.40;56.00;;;;;;6138492;29;20027;-77
2022/09/24 08:19:58;;;;;;;0.60;0.60;;;20.40;55.90;;;;;;6171011;28;20046;-77
2022/09/24 08:23:03;;;;;;;1.17;0.82;;;20.50;56.00;;;;;;6218641;28;20065;-79
2022/09/24 08:26:04;;;;;;;2.25;0.70;;;20.40;56.10;;;;;;6214542;28;20040;-78
2022/09/24 08:29:05;;;;;;;1.83;0.80;;;20.50;56.00;;;;;;6218857;28;20223;-79
2022/09/24 08:32:06;;;;;;;0.60;0.50;;;20.40;56.00;;;;;;6218121;28;20061;-79
2022/09/24 08:35:07;;;;;;;1.40;0.80;;;20.40;55.90;;;;;;6218195;28;20029;-78
2022/09/24 08:38:08;;;;;;;0.85;0.80;;;20.40;56.00;;;;;;6218245;28;20021;-79
2022/09/24 08:41:11;;;;;;;0.50;0.50;;;20.50;55.90;;;;;;6218344;28;20495;-79
2022/09/24 08:47:21;;;;;;;0.88;0.70;;;20.40;56.00;;;;;;6219471;28;20046;-79
2022/09/24 08:48:12;;;;;;;0.80;0.70;;;20.40;55.90;;;;;;6218381;28;20060;-79
2022/09/24 08:51:17;;;;;;;0.57;0.57;;;20.40;55.90;;;;;;6195431;28;20378;-78
2022/09/24 08:54:22;;;;;;;0.80;0.70;;;20.40;56.00;;;;;;6213894;28;20033;-74
2022/09/24 08:57:26;;;;;;;1.27;1.05;;;20.40;55.80;;;;;;6190577;28;20580;-78
2022/09/24 09:00:35;;;;;;;1.15;0.90;;;20.40;56.00;;;;;;6217095;28;20128;-79
2022/09/24 09:03:39;;;;;;;0.63;0.55;;;20.40;55.90;;;;;;6217205;28;20282;-78
2022/09/24 09:07:00;;;;;;;1.00;0.80;;;20.40;56.00;;;;;;6218083;28;20485;-79
2022/09/24 09:10:08;;;;;;;0.55;0.55;;;20.40;55.90;;;;;;6218024;28;20478;-78
2022/09/24 09:13:14;;;;;;;0.73;0.73;;;20.40;55.90;;;;;;6217502;28;20068;-79
2022/09/24 09:16:29;;;;;;;0.70;0.70;;;20.40;55.90;;;;;;6216540;28;20033;-79
2022/09/24 09:19:33;;;;;;;1.23;0.70;;;20.40;55.90;;;;;;6218309;28;20133;-79
2022/09/24 09:22:40;;;;;;;4.10;0.73;;;20.40;55.90;;;;;;6217451;28;20273;-78
2022/09/24 09:25:46;;;;;;;0.73;0.70;;;20.40;56.00;;;;;;6145010;28;20051;-79
2022/09/24 09:28:47;;;;;;;1.02;0.80;;;20.40;56.00;;;;;;6165915;28;20530;-79
2022/09/24 09:32:26;;;;;;;0.60;0.60;;;20.40;56.00;;;;;;6151190;28;20415;-78
2022/09/24 09:35:40;;;;;;;0.73;0.60;;;20.50;56.10;;;;;;6144086;28;20042;-77
2022/09/24 09:38:43;;;;;;;1.42;0.80;;;20.40;56.00;;;;;;6165822;28;20117;-78
2022/09/24 09:41:51;;;;;;;1.15;0.70;;;20.40;56.10;;;;;;6152922;28;20055;-78
2022/09/24 09:44:52;;;;;;;1.10;0.82;;;20.40;56.10;;;;;;6147009;28;20046;-78
2022/09/24 09:47:55;;;;;;;0.75;0.70;;;20.40;56.10;;;;;;6143079;28;20114;-79
2022/09/24 09:51:04;;;;;;;1.42;0.90;;;20.40;56.00;;;;;;6142015;29;20138;-79
2022/09/24 09:54:05;;;;;;;1.08;0.80;;;20.40;56.00;;;;;;6141686;29;20041;-79
2022/09/24 09:57:11;;;;;;;0.90;0.70;;;20.40;56.80;;;;;;6161983;28;20047;-77
2022/09/24 10:00:31;;;;;;;2.72;1.20;;;20.40;56.10;;;;;;6169189;28;20030;-79
2022/09/24 10:03:55;;;;;;;0.93;0.70;;;20.40;56.10;;;;;;6146517;28;20039;-78
2022/09/24 10:07:16;;;;;;;0.88;0.80;;;20.50;56.20;;;;;;6160268;28;20037;-79
2022/09/24 10:10:22;;;;;;;1.08;0.80;;;20.40;56.10;;;;;;6173444;28;20466;-78
2022/09/24 10:13:24;;;;;;;1.00;0.90;;;20.40;56.10;;;;;;6169053;28;20082;-79
2022/09/24 10:16:24;;;;;;;0.80;0.80;;;20.40;56.20;;;;;;6172493;28;20035;-78
2022/09/24 10:19:27;;;;;;;1.38;1.08;;;20.40;56.20;;;;;;6173877;28;20062;-78
2022/09/24 10:22:29;;;;;;;0.70;0.70;;;20.40;56.10;;;;;;6174271;28;20118;-79
2022/09/24 10:25:31;;;;;;;0.93;0.63;;;20.40;56.10;;;;;;6173238;28;20049;-78
2022/09/24 10:31:57;;;;;;;0.87;0.70;;;20.40;56.00;;;;;;6173220;28;20421;-78
2022/09/24 10:35:17;;;;;;;0.70;0.70;;;20.40;56.20;;;;;;6172519;28;20034;-79
2022/09/24 10:38:23;;;;;;;1.40;0.80;;;20.40;56.20;;;;;;6172502;28;20023;-76
2022/09/24 10:41:27;;;;;;;1.10;0.90;;;20.40;56.10;;;;;;6173865;28;20490;-76
2022/09/24 10:44:37;;;;;;;0.60;0.60;;;20.40;56.20;;;;;;6219729;28;20169;-79
2022/09/24 10:47:48;;;;;;;0.80;0.70;;;20.40;55.90;;;;;;6220829;28;20373;-79
2022/09/24 10:51:10;;;;;;;0.70;0.70;;;20.50;56.20;;;;;;6220807;28;20030;-79
2022/09/24 10:54:26;;;;;;;0.60;0.60;;;20.50;56.00;;;;;;6220202;28;20025;-78
2022/09/24 10:57:33;;;;;;;1.42;0.80;;;20.50;56.00;;;;;;6220724;28;20068;-78
2022/09/24 11:01:16;;;;;;;1.35;1.10;;;20.40;56.00;;;;;;6220383;28;20436;-79
2022/09/24 11:04:46;;;;;;;1.00;0.80;;;20.50;56.00;;;;;;6218232;28;20080;-79
2022/09/24 11:08:14;;;;;;;1.05;0.73;;;20.40;56.00;;;;;;6220324;28;20022;-78
2022/09/24 11:11:20;;;;;;;1.00;0.80;;;20.40;56.20;;;;;;6218654;28;20511;-78
2022/09/24 11:15:03;;;;;;;1.05;0.70;;;20.40;56.00;;;;;;6219893;28;20065;-79
2022/09/24 11:18:33;;;;;;;1.05;0.80;;;20.40;56.10;;;;;;6219848;28;20040;-79
2022/09/24 11:21:56;;;;;;;0.70;0.70;;;20.50;56.00;;;;;;6219249;28;20041;-79
2022/09/24 11:25:20;;;;;;;0.90;0.70;;;20.50;56.20;;;;;;6195324;28;20034;-80
2022/09/24 11:29:03;;;;;;;0.85;0.82;;;20.50;56.20;;;;;;6206220;28;20025;-79
2022/09/24 11:32:15;;;;;;;0.63;0.63;;;20.50;56.20;;;;;;6145692;28;20423;-78
2022/09/24 11:35:22;;;;;;;1.05;0.70;;;20.40;56.10;;;;;;6219611;28;20030;-79
2022/09/24 11:38:49;;;;;;;0.90;0.70;;;20.40;56.00;;;;;;6219639;28;20026;-78
2022/09/24 11:42:15;;;;;;;1.02;0.80;;;20.40;56.00;;;;;;6218696;28;20036;-79
2022/09/24 11:45:23;;;;;;;;;;;20.50;56.00;;;;;;6205876;28;20528;-79
2022/09/24 11:48:33;;;;;;;0.82;0.77;;;20.50;56.00;;;;;;6219683;28;19917;-78
2022/09/24 11:51:51;;;;;;;0.80;0.60;;;20.50;56.10;;;;;;6218866;28;20456;-78
2022/09/24 11:55:01;;;;;;;0.95;0.80;;;20.50;56.10;;;;;;6219386;28;20026;-79
2022/09/24 11:58:27;;;;;;;0.80;0.70;;;20.40;56.00;;;;;;6218894;28;20026;-78
2022/09/24 12:01:33;;;;;;;0.65;0.65;;;20.40;56.00;;;;;;6217370;28;20041;-78
2022/09/24 12:04:56;;;;;;;1.02;0.90;;;20.50;56.00;;;;;;6218471;28;20088;-80
2022/09/24 12:08:16;;;;;;;1.50;0.95;;;20.50;56.10;;;;;;6219170;28;20056;-79
2022/09/24 12:11:31;;;;;;;0.60;0.60;;;20.40;56.20;;;;;;6219212;28;20065;-79
2022/09/24 12:14:51;;;;;;;;;;;20.40;56.00;;;;;;6217795;28;20037;-77
2022/09/24 12:18:05;;;;;;;0.80;0.65;;;20.50;56.10;;;;;;6218663;28;20276;-78
2022/09/24 12:21:14;;;;;;;0.93;0.60;;;20.40;56.00;;;;;;6218673;28;20402;-79
2022/09/24 12:24:22;;;;;;;0.80;0.70;;;20.40;56.00;;;;;;6217401;28;20091;-78
2022/09/24 12:27:34;;;;;;;0.70;0.70;;;20.40;56.00;;;;;;6216074;28;20412;-79
2022/09/24 12:34:26;;;;;;;0.80;0.65;;;20.50;56.10;;;;;;6218739;28;20037;-78
2022/09/24 12:37:37;;;;;;;0.77;0.63;;;20.40;56.00;;;;;;6217669;28;20033;-79
2022/09/24 12:41:06;;;;;;;0.80;0.60;;;20.40;56.10;;;;;;6214489;28;20397;-78
2022/09/24 12:44:09;;;;;;;0.60;0.60;;;20.40;56.10;;;;;;6218837;28;20085;-79
2022/09/24 12:47:23;;;;;;;0.98;0.85;;;20.40;56.00;;;;;;6215421;28;20054;-78
2022/09/24 12:50:33;;;;;;;1.33;0.85;;;20.40;56.00;;;;;;6217824;28;20359;-79
2022/09/24 12:53:37;;;;;;;1.00;0.70;;;20.40;56.00;;;;;;6218197;28;20022;-79
2022/09/24 12:56:38;;;;;;;0.70;0.60;;;20.40;56.10;;;;;;6217162;28;20029;-79
2022/09/24 13:00:23;;;;;;;0.80;0.60;;;20.40;56.10;;;;;;6217758;28;20420;-78
2022/09/24 13:03:32;;;;;;;0.68;0.60;;;20.40;56.20;;;;;;6217233;28;20094;-78
2022/09/24 13:06:36;;;;;;;1.13;0.77;;;20.40;56.00;;;;;;6193694;28;20030;-77
2022/09/24 13:09:39;;;;;;;1.20;0.80;;;20.40;56.10;;;;;;6201429;28;20108;-79
2022/09/24 13:12:40;;;;;;;0.73;0.63;;;20.40;56.10;;;;;;6217206;28;20029;-78
2022/09/24 13:15:41;;;;;;;0.80;0.70;;;20.50;56.20;;;;;;6217130;28;20437;-78
2022/09/24 13:18:50;;;;;;;1.08;0.80;;;20.40;56.10;;;;;;6217422;28;20424;-79
2022/09/24 13:21:59;;;;;;;1.65;0.80;;;20.40;56.20;;;;;;6191312;28;20030;-78
2022/09/24 13:25:09;;;;;;;0.47;0.47;;;20.50;56.20;;;;;;6199622;28;20463;-79
2022/09/24 13:28:28;;;;;;;0.98;0.70;;;20.50;56.20;;;;;;6217314;28;20030;-79
2022/09/24 13:31:38;;;;;;;0.63;0.50;;;20.40;56.10;;;;;;6217614;28;20030;-78
2022/09/24 13:34:39;;;;;;;0.80;0.70;;;20.40;56.20;;;;;;6214314;28;20030;-79
2022/09/24 13:37:46;;;;;;;0.90;0.70;;;20.40;56.20;;;;;;6218478;28;20113;-79
2022/09/24 13:41:18;;;;;;;0.70;0.63;;;20.40;56.20;;;;;;6222146;28;20018;-79
2022/09/24 13:44:28;;;;;;;0.68;0.63;;;20.50;56.30;;;;;;6219210;28;20092;-79
2022/09/24 13:47:42;;;;;;;1.10;0.93;;;20.40;56.20;;;;;;6222201;28;20026;-79
2022/09/24 13:50:48;;;;;;;0.87;0.77;;;20.50;56.30;;;;;;6217091;28;20488;-79
2022/09/24 13:54:05;;;;;;;0.77;0.55;;;20.40;56.20;;;;;;6222066;28;20022;-78
2022/09/24 13:57:19;;;;;;;1.15;0.80;;;20.40;56.20;;;;;;6221623;28;20435;-78
2022/09/24 14:00:21;;;;;;;1.13;0.70;;;20.40;56.10;;;;;;6221087;28;20485;-78
2022/09/24 14:03:29;;;;;;;0.55;0.55;;;20.40;56.10;;;;;;6221765;28;20124;-79
2022/09/24 14:06:34;;;;;;;0.65;0.65;;;20.40;56.20;;;;;;6221299;28;20109;-79
2022/09/24 14:09:36;;;;;;;0.77;0.60;;;20.40;56.30;;;;;;6219895;28;20120;-79
2022/09/24 14:12:36;;;;;;;0.77;0.60;;;20.40;56.20;;;;;;6197237;28;20114;-78
2022/09/24 14:15:37;;;;;;;1.00;0.70;;;20.40;56.20;;;;;;6204491;28;20040;-79
2022/09/24 14:18:38;;;;;;;1.25;0.70;;;20.40;56.20;;;;;;6221872;28;20022;-77
2022/09/24 14:21:50;;;;;;;1.15;0.70;;;20.40;56.20;;;;;;6218978;28;20025;-80
2022/09/24 14:24:57;;;;;;;0.55;0.55;;;20.40;56.30;;;;;;6216676;28;20038;-78
2022/09/24 14:27:59;;;;;;;0.95;0.60;;;20.40;56.20;;;;;;6196885;28;20105;-79
2022/09/24 14:31:01;;;;;;;0.70;0.70;;;20.40;56.20;;;;;;6203960;28;20076;-79
2022/09/24 14:34:04;;;;;;;0.57;0.57;;;20.40;56.20;;;;;;6220645;28;20503;-78
2022/09/24 14:37:27;;;;;;;0.55;0.55;;;20.40;56.20;;;;;;6220952;28;20444;-79
2022/09/24 14:40:28;;;;;;;0.60;0.50;;;20.50;56.30;;;;;;6219311;28;20116;-79
2022/09/24 14:43:34;;;;;;;0.70;0.60;;;20.40;56.20;;;;;;6215989;28;20050;-79
2022/09/24 14:46:47;;;;;;;1.20;0.93;;;20.40;56.20;;;;;;6220742;28;20389;-78
2022/09/24 14:49:48;;;;;;;0.93;0.60;;;20.40;56.40;;;;;;6218546;28;20069;-78
2022/09/24 14:52:55;;;;;;;1.02;0.70;;;20.50;56.30;;;;;;6220554;28;20052;-79
2022/09/24 14:55:56;;;;;;;0.60;0.60;;;20.40;56.20;;;;;;6221008;28;20080;-78
2022/09/24 14:58:58;;;;;;;0.50;0.50;;;20.50;56.30;;;;;;6220213;28;20026;-78
2022/09/24 15:02:29;;;;;;;0.90;0.63;;;20.50;56.40;;;;;;6218597;28;20025;-78
2022/09/24 15:05:30;;;;;;;0.90;0.80;;;20.40;56.40;;;;;;6220290;28;20038;-78
2022/09/24 15:08:31;;;;;;;0.60;0.52;;;20.40;56.30;;;;;;6220163;28;20125;-78
2022/09/24 15:11:34;;;;;;;0.70;0.70;;;20.40;56.40;;;;;;6219991;28;20022;-79
2022/09/24 15:14:35;;;;;;;0.82;0.55;;;20.40;56.50;;;;;;6219688;28;20396;-79
2022/09/24 15:17:36;;;;;;;0.98;0.70;;;20.40;56.40;;;;;;6219886;28;20062;-79
2022/09/24 15:20:37;;;;;;;1.02;0.73;;;20.40;56.40;;;;;;6219375;28;20026;-78
2022/09/24 15:23:37;;;;;;;0.50;0.50;;;20.40;56.40;;;;;;6219683;28;20319;-79
2022/09/24 15:26:41;;;;;;;0.90;0.73;;;20.40;56.30;;;;;;6219152;28;20034;-75
2022/09/24 15:29:42;;;;;;;0.57;0.57;;;20.40;57.20;;;;;;6220194;28;20026;-78
2022/09/24 15:32:42;;;;;;;0.60;0.60;;;20.40;56.40;;;;;;6157222;28;20042;-79
2022/09/24 15:35:43;;;;;;;0.57;0.50;;;20.50;56.40;;;;;;6168253;28;20038;-78
2022/09/24 15:38:44;;;;;;;0.68;0.63;;;20.40;56.40;;;;;;6144276;28;20114;-79
2022/09/24 15:41:45;;;;;;;0.73;0.50;;;20.40;56.30;;;;;;6149021;28;20066;-79
2022/09/24 15:44:46;;;;;;;1.13;0.73;;;20.40;56.40;;;;;;6159355;28;20138;-79
2022/09/24 15:47:48;;;;;;;0.80;0.75;;;20.40;56.30;;;;;;6143373;29;20051;-79
2022/09/24 15:50:50;;;;;;;0.93;0.65;;;20.40;56.50;;;;;;6127597;29;20545;-78
2022/09/24 15:53:51;;;;;;;0.43;0.43;;;20.50;56.50;;;;;;6163617;28;20486;-78
2022/09/24 15:56:51;;;;;;;0.65;0.60;;;20.50;56.40;;;;;;6161624;28;20034;-77
2022/09/24 15:59:52;;;;;;;0.50;0.50;;;20.40;56.40;;;;;;6154315;28;20077;-78
2022/09/24 16:02:55;;;;;;;0.60;0.50;;;20.50;56.30;;;;;;6180641;28;20038;-79
2022/09/24 16:05:58;;;;;;;0.50;0.50;;;20.40;56.30;;;;;;6218734;28;20588;-78
2022/09/24 16:08:58;;;;;;;0.70;0.60;;;20.40;56.40;;;;;;6218119;28;20033;-79
2022/09/24 16:11:59;;;;;;;0.60;0.60;;;20.50;56.50;;;;;;6216994;28;20040;-78
2022/09/24 16:15:00;;;;;;;0.60;0.50;;;20.50;56.30;;;;;;6217687;28;20034;-78
2022/09/24 16:18:01;;;;;;;0.68;0.63;;;20.50;56.40;;;;;;6218948;28;20033;-79
2022/09/24 16:21:06;;;;;;;0.68;0.60;;;20.40;56.30;;;;;;6216687;28;20123;-79
2022/09/24 16:24:07;;;;;;;0.95;0.70;;;20.40;57.00;;;;;;6217474;28;20535;-78